createdAt,value
2019-06-10T00:01:51.248Z,11.77
2019-06-10T00:04:22.540Z,4.57
2019-06-10T00:06:55.558Z,10.37
2019-06-10T00:09:27.579Z,6.83
2019-06-10T00:12:02.775Z,5.53
2019-06-10T00:14:33.064Z,8.73
2019-06-10T00:17:06.354Z,6.50
2019-06-10T00:19:40.735Z,7.60
2019-06-10T00:22:12.054Z,5.53
2019-06-10T00:24:43.793Z,5.03
2019-06-10T00:27:15.500Z,4.17
2019-06-10T00:29:47.223Z,9.53
2019-06-10T00:32:21.318Z,10.83
2019-06-10T00:34:53.040Z,6.73
2019-06-10T00:37:24.748Z,6.27
2019-06-10T00:39:56.629Z,4.57
2019-06-10T00:42:28.316Z,8.47
2019-06-10T00:45:02.673Z,8.10
2019-06-10T00:47:33.679Z,7.17
2019-06-10T00:50:08.188Z,5.53
2019-06-10T00:52:42.210Z,4.77
2019-06-10T00:55:13.910Z,4.17
2019-06-10T00:57:45.752Z,6.80
2019-06-10T01:00:25.163Z,10.63
2019-06-10T01:02:51.809Z,13.47
2019-06-10T01:05:23.742Z,6.27
2019-06-10T01:07:55.553Z,22.43
2019-06-10T01:10:27.480Z,6.60
2019-06-10T01:13:00.807Z,8.00
2019-06-10T01:15:32.805Z,6.63
2019-06-10T01:18:05.933Z,11.63
2019-06-10T01:20:37.836Z,10.50
2019-06-10T01:23:11.920Z,11.33
2019-06-10T01:25:43.147Z,9.53
2019-06-10T01:28:16.880Z,18.67
2019-06-10T01:30:48.491Z,16.13
2019-06-10T01:33:21.223Z,10.73
2019-06-10T01:35:53.165Z,14.27
2019-06-10T01:38:24.890Z,11.10
2019-06-10T01:40:56.792Z,14.57
2019-06-10T01:43:28.485Z,12.33
2019-06-10T01:46:01.569Z,11.03
2019-06-10T01:48:43.933Z,11.40
2019-06-10T01:51:07.186Z,8.47
2019-06-10T01:53:41.417Z,11.87
2019-06-10T01:56:14.249Z,6.60
2019-06-10T01:58:46.171Z,8.20
2019-06-10T02:01:24.416Z,10.10
2019-06-10T02:03:56.124Z,7.93
2019-06-10T02:06:27.961Z,7.90
2019-06-10T02:09:05.413Z,15.90
2019-06-10T02:11:37.215Z,12.67
2019-06-10T02:14:10.103Z,9.87
2019-06-10T02:16:42.576Z,12.50
2019-06-10T02:19:15.761Z,14.07
2019-06-10T02:21:47.995Z,11.40
2019-06-10T02:24:22.019Z,8.17
2019-06-10T02:26:53.329Z,11.63
2019-06-10T02:29:25.038Z,12.37
2019-06-10T02:31:56.754Z,9.73
2019-06-10T02:34:28.614Z,11.77
2019-06-10T02:37:04.347Z,9.67
2019-06-10T02:39:38.745Z,13.03
2019-06-10T02:42:18.959Z,12.00
2019-06-10T02:44:47.453Z,8.20
2019-06-10T02:47:23.764Z,8.33
2019-06-10T02:50:02.432Z,9.17
2019-06-10T02:52:33.020Z,9.00
2019-06-10T02:55:03.743Z,9.50
2019-06-10T02:57:39.689Z,9.33
2019-06-10T03:00:19.843Z,7.93
2019-06-10T03:02:45.032Z,16.13
2019-06-10T03:05:19.417Z,7.00
2019-06-10T03:07:53.217Z,11.10
2019-06-10T03:10:29.948Z,9.30
2019-06-10T03:12:57.833Z,12.93
2019-06-10T03:15:32.049Z,9.43
2019-06-10T03:18:03.756Z,11.30
2019-06-10T03:20:35.452Z,6.23
2019-06-10T03:23:07.176Z,7.30
2019-06-10T03:25:38.881Z,9.03
2019-06-10T03:28:12.074Z,11.20
2019-06-10T03:30:52.784Z,10.17
2019-06-10T03:33:18.289Z,7.90
2019-06-10T03:35:52.672Z,14.03
2019-06-10T03:38:26.994Z,13.37
2019-06-10T03:41:12.268Z,11.53
2019-06-10T03:43:54.054Z,16.13
2019-06-10T03:46:35.746Z,10.73
2019-06-10T03:49:07.606Z,12.10
2019-06-10T03:51:39.308Z,9.73
2019-06-10T03:54:13.071Z,7.83
2019-06-10T03:56:44.653Z,13.10
2019-06-10T03:59:17.180Z,10.07
2019-06-10T04:01:48.966Z,8.67
2019-06-10T04:04:23.456Z,12.47
2019-06-10T04:06:54.287Z,12.73
2019-06-10T04:09:27.530Z,9.20
2019-06-10T04:12:01.919Z,10.03
2019-06-10T04:14:33.439Z,7.30
2019-06-10T04:17:05.324Z,8.13
2019-06-10T04:19:37.048Z,5.00
2019-06-10T04:22:08.869Z,6.40
2019-06-10T04:24:42.989Z,6.97
2019-06-10T04:27:14.215Z,8.97
2019-06-10T04:29:46.010Z,6.90
2019-06-10T04:32:18.209Z,9.20
2019-06-10T04:34:50.032Z,7.77
2019-06-10T04:37:23.415Z,8.90
2019-06-10T04:39:57.481Z,11.27
2019-06-10T04:42:29.082Z,12.23
2019-06-10T04:45:02.948Z,9.47
2019-06-10T04:47:34.472Z,8.10
2019-06-10T04:50:20.792Z,7.07
2019-06-10T04:52:42.905Z,8.60
2019-06-10T04:55:14.389Z,12.40
2019-06-10T04:57:46.219Z,19.97
2019-06-10T05:00:19.254Z,10.87
2019-06-10T05:02:52.212Z,9.87
2019-06-10T05:05:26.818Z,10.50
2019-06-10T05:07:57.857Z,11.67
2019-06-10T05:10:29.906Z,12.23
2019-06-10T05:13:03.114Z,10.03
2019-06-10T05:15:35.219Z,6.80
2019-06-10T05:18:07.057Z,10.83
2019-06-10T05:20:52.041Z,16.33
2019-06-10T05:23:12.701Z,11.63
2019-06-10T05:25:44.567Z,8.27
2019-06-10T05:28:16.268Z,11.20
2019-06-10T05:30:47.998Z,12.17
2019-06-10T05:33:20.787Z,14.27
2019-06-10T05:35:53.436Z,12.03
2019-06-10T05:38:26.848Z,13.23
2019-06-10T05:40:58.820Z,15.50
2019-06-10T05:43:33.071Z,16.30
2019-06-10T05:46:04.330Z,9.80
2019-06-10T05:48:36.104Z,10.73
2019-06-10T05:51:07.808Z,14.33
2019-06-10T05:53:42.035Z,13.73
2019-06-10T05:56:13.124Z,10.67
2019-06-10T05:58:44.832Z,9.67
2019-06-10T06:01:16.546Z,15.63
2019-06-10T06:03:48.338Z,10.30
2019-06-10T06:06:20.041Z,8.67
2019-06-10T06:08:53.374Z,11.27
2019-06-10T06:11:25.444Z,10.13
2019-06-10T06:13:57.136Z,12.03
2019-06-10T06:16:30.378Z,12.43
2019-06-10T06:19:03.423Z,11.20
2019-06-10T06:21:42.112Z,11.80
2019-06-10T06:24:08.847Z,10.47
2019-06-10T06:26:43.114Z,12.97
2019-06-10T06:29:14.321Z,11.90
2019-06-10T06:31:46.055Z,17.63
2019-06-10T06:34:17.839Z,15.70
2019-06-10T06:36:49.573Z,10.57
2019-06-10T06:39:21.381Z,15.53
2019-06-10T06:41:53.101Z,11.37
2019-06-10T06:44:24.804Z,12.13
2019-06-10T06:46:56.538Z,15.53
2019-06-10T06:49:28.240Z,9.33
2019-06-10T06:52:02.792Z,12.37
2019-06-10T06:54:36.076Z,9.97
2019-06-10T06:57:07.321Z,11.13
2019-06-10T06:59:40.281Z,9.63
2019-06-10T07:02:12.768Z,9.90
2019-06-10T07:04:44.975Z,8.83
2019-06-10T07:07:18.829Z,12.63
2019-06-10T07:09:52.667Z,12.83
2019-06-10T07:12:24.572Z,10.07
2019-06-10T07:14:57.165Z,11.27
2019-06-10T07:17:28.904Z,12.93
2019-06-10T07:20:03.146Z,14.03
2019-06-10T07:22:36.878Z,15.93
2019-06-10T07:25:08.033Z,9.03
2019-06-10T07:27:42.859Z,11.38
2019-06-10T07:30:15.172Z,9.87
2019-06-10T07:32:47.569Z,12.35
2019-06-10T07:35:19.392Z,10.10
2019-06-10T07:37:52.293Z,9.58
2019-06-10T07:40:24.224Z,9.60
2019-06-10T07:42:55.966Z,12.28
2019-06-10T07:45:27.676Z,8.48
2019-06-10T07:47:59.414Z,13.75
2019-06-10T07:50:33.347Z,6.25
2019-06-10T07:53:04.889Z,7.78
2019-06-10T07:55:37.846Z,14.83
2019-06-10T07:58:09.713Z,16.40
2019-06-10T08:00:46.493Z,9.30
2019-06-10T08:03:15.157Z,12.68
2019-06-10T08:05:47.193Z,9.07
2019-06-10T08:08:19.013Z,10.97
2019-06-10T08:10:52.891Z,9.70
2019-06-10T08:13:24.391Z,10.25
2019-06-10T08:15:56.305Z,14.18
2019-06-10T08:18:28.058Z,8.33
2019-06-10T08:20:59.813Z,8.28
2019-06-10T08:23:32.886Z,12.28
2019-06-10T08:26:04.885Z,13.00
2019-06-10T08:28:37.556Z,8.05
2019-06-10T08:31:09.312Z,13.03
2019-06-10T08:33:45.343Z,8.70
2019-06-10T08:36:14.637Z,9.63
2019-06-10T08:38:48.642Z,14.00
2019-06-10T08:41:22.829Z,13.53
2019-06-10T08:43:53.946Z,10.00
2019-06-10T08:46:25.646Z,8.65
2019-06-10T08:48:57.452Z,9.38
2019-06-10T08:51:29.161Z,11.00
2019-06-10T08:54:02.435Z,9.48
2019-06-10T08:56:34.398Z,12.73
2019-06-10T08:59:06.246Z,12.18
2019-06-10T09:01:39.473Z,11.03
2019-06-10T09:04:13.245Z,10.03
2019-06-10T09:06:47.996Z,12.55
2019-06-10T09:09:18.819Z,11.83
2019-06-10T09:11:51.971Z,15.08
2019-06-10T09:14:24.446Z,25.60
2019-06-10T09:16:56.404Z,11.33
2019-06-10T09:19:28.150Z,11.75
2019-06-10T09:21:59.858Z,11.08
2019-06-10T09:24:32.829Z,14.87
2019-06-10T09:27:04.728Z,9.38
2019-06-10T09:29:36.569Z,9.85
2019-06-10T09:32:08.261Z,9.75
2019-06-10T09:34:41.517Z,8.33
2019-06-10T09:37:13.608Z,7.65
2019-06-10T09:39:51.834Z,8.18
2019-06-10T09:42:19.126Z,5.08
2019-06-10T09:44:55.379Z,9.88
2019-06-10T09:47:25.813Z,11.45
2019-06-10T09:49:58.025Z,11.63
2019-06-10T09:52:29.737Z,9.33
2019-06-10T09:55:02.736Z,9.00
2019-06-10T09:57:35.363Z,9.93
2019-06-10T10:00:09.405Z,9.35
2019-06-10T10:02:44.922Z,11.63
2019-06-10T10:05:14.984Z,8.28
2019-06-10T10:07:49.979Z,9.08
2019-06-10T10:10:26.861Z,10.18
2019-06-10T10:12:58.556Z,9.88
2019-06-10T10:15:33.857Z,10.25
2019-06-10T10:18:04.711Z,8.15
2019-06-10T10:20:36.440Z,7.42
2019-06-10T10:23:08.259Z,7.33
2019-06-10T10:25:40.076Z,8.53
2019-06-10T10:28:13.432Z,7.50
2019-06-10T10:30:48.726Z,10.93
2019-06-10T10:33:19.159Z,11.00
2019-06-10T10:35:50.994Z,8.35
2019-06-10T10:38:23.053Z,7.70
2019-06-10T10:40:58.487Z,8.55
2019-06-10T10:43:34.142Z,9.30
2019-06-10T10:46:05.675Z,11.03
2019-06-10T10:48:36.210Z,10.38
2019-06-10T10:51:07.923Z,9.78
2019-06-10T10:53:39.739Z,9.65
2019-06-10T10:56:12.955Z,7.50
2019-06-10T10:58:45.890Z,6.08
2019-06-10T11:01:18.689Z,7.85
2019-06-10T11:03:52.533Z,8.35
2019-06-10T11:06:24.028Z,13.75
2019-06-10T11:08:57.731Z,5.05
2019-06-10T11:11:30.052Z,8.90
2019-06-10T11:14:03.494Z,9.48
2019-06-10T11:16:35.492Z,9.43
2019-06-10T11:19:07.209Z,7.95
2019-06-10T11:21:38.967Z,12.37
2019-06-10T11:24:14.186Z,8.13
2019-06-10T11:26:45.577Z,7.12
2019-06-10T11:29:17.609Z,9.23
2019-06-10T11:31:50.461Z,9.40
2019-06-10T11:34:22.965Z,10.20
2019-06-10T11:36:56.301Z,7.90
2019-06-10T11:39:28.240Z,6.10
2019-06-10T11:42:02.230Z,5.30
2019-06-10T11:44:34.065Z,5.25
2019-06-10T11:47:06.021Z,8.80
2019-06-10T11:49:37.808Z,8.13
2019-06-10T11:52:09.526Z,10.45
2019-06-10T11:54:51.692Z,7.33
2019-06-10T11:57:14.925Z,8.75
2019-06-10T11:59:46.636Z,6.97
2019-06-10T12:02:18.494Z,6.58
2019-06-10T12:04:52.799Z,8.18
2019-06-10T12:07:23.912Z,13.43
2019-06-10T12:09:58.802Z,5.55
2019-06-10T12:12:29.355Z,11.22
2019-06-10T12:15:01.508Z,6.40
2019-06-10T12:17:43.162Z,7.08
2019-06-10T12:20:08.523Z,5.58
2019-06-10T12:22:42.410Z,7.55
2019-06-10T12:25:31.602Z,5.72
2019-06-10T12:27:50.411Z,9.00
2019-06-10T12:30:22.554Z,5.58
2019-06-10T12:32:57.458Z,6.00
2019-06-10T12:35:28.030Z,8.35
2019-06-10T12:38:02.326Z,12.45
2019-06-10T12:40:33.506Z,6.55
2019-06-10T12:43:07.079Z,4.50
2019-06-10T12:45:38.847Z,8.43
2019-06-10T12:48:13.150Z,12.63
2019-06-10T12:50:44.165Z,6.75
2019-06-10T12:53:16.248Z,5.35
2019-06-10T12:55:48.196Z,5.35
2019-06-10T12:58:22.150Z,5.97
2019-06-10T13:00:54.347Z,10.63
2019-06-10T13:03:27.352Z,8.85
2019-06-10T13:06:04.700Z,7.62
2019-06-10T13:08:35.215Z,11.78
2019-06-10T13:11:08.198Z,5.45
2019-06-10T13:13:42.176Z,5.35
2019-06-10T13:16:14.489Z,6.60
2019-06-10T13:18:46.472Z,6.03
2019-06-10T13:21:18.202Z,6.15
2019-06-10T13:23:50.025Z,11.20
2019-06-10T13:26:23.163Z,5.12
2019-06-10T13:28:55.282Z,12.07
2019-06-10T13:31:27.295Z,7.15
2019-06-10T13:34:04.236Z,6.87
2019-06-10T13:36:33.157Z,6.90
2019-06-10T13:39:08.609Z,5.60
2019-06-10T13:41:40.208Z,7.03
2019-06-10T13:44:15.382Z,9.48
2019-06-10T13:46:45.600Z,6.65
2019-06-10T13:49:17.345Z,9.58
2019-06-10T13:51:49.068Z,8.73
2019-06-10T13:54:22.593Z,4.50
2019-06-10T13:56:54.499Z,7.45
2019-06-10T13:59:26.247Z,9.93
2019-06-10T14:01:58.069Z,14.35
2019-06-10T14:04:29.787Z,5.28
2019-06-10T14:07:04.518Z,7.05
2019-06-10T14:09:37.408Z,6.42
2019-06-10T14:12:17.591Z,5.90
2019-06-10T14:14:48.282Z,4.65
2019-06-10T14:17:22.724Z,6.30
2019-06-10T14:19:53.828Z,5.42
2019-06-10T14:22:25.536Z,6.80
2019-06-10T14:24:57.253Z,7.00
2019-06-10T14:27:28.957Z,6.78
2019-06-10T14:30:02.837Z,11.63
2019-06-10T14:32:34.322Z,8.55
2019-06-10T14:35:08.491Z,11.08
2019-06-10T14:37:39.748Z,13.53
2019-06-10T14:40:18.521Z,7.62
2019-06-10T14:42:45.184Z,17.15
2019-06-10T14:45:17.212Z,8.80
2019-06-10T14:47:48.920Z,10.30
2019-06-10T14:50:23.015Z,9.68
2019-06-10T14:52:54.459Z,8.78
2019-06-10T14:55:26.196Z,8.25
2019-06-10T14:57:57.901Z,8.83
2019-06-10T15:00:29.636Z,8.55
2019-06-10T15:03:04.655Z,6.10
2019-06-10T15:05:35.281Z,10.43
2019-06-10T15:08:07.292Z,10.03
2019-06-10T15:10:39.276Z,6.75
2019-06-10T15:13:11.816Z,10.72
2019-06-10T15:15:44.524Z,9.95
2019-06-10T15:18:18.129Z,7.25
2019-06-10T15:20:50.131Z,7.62
2019-06-10T15:23:23.439Z,6.47
2019-06-10T15:25:57.161Z,8.48
2019-06-10T15:28:29.208Z,11.48
2019-06-10T15:31:03.031Z,10.60
2019-06-10T15:33:34.757Z,13.48
2019-06-10T15:36:06.599Z,8.88
2019-06-10T15:38:38.326Z,5.83
2019-06-10T15:41:12.986Z,10.50
2019-06-10T15:43:43.672Z,6.42
2019-06-10T15:46:16.287Z,10.53
2019-06-10T15:48:49.162Z,10.38
2019-06-10T15:51:25.151Z,16.23
2019-06-10T15:53:54.521Z,8.88
2019-06-10T15:56:37.553Z,11.85
2019-06-10T15:58:59.840Z,8.18
2019-06-10T16:01:32.666Z,14.95
2019-06-10T16:04:04.616Z,11.83
2019-06-10T16:06:36.421Z,11.90
2019-06-10T16:09:08.268Z,11.05
2019-06-10T16:11:41.095Z,12.00
2019-06-10T16:14:14.770Z,10.25
2019-06-10T16:16:46.654Z,9.95
2019-06-10T16:19:19.613Z,11.18
2019-06-10T16:21:52.474Z,18.25
2019-06-10T16:24:27.370Z,10.00
2019-06-10T16:26:58.040Z,13.03
2019-06-10T16:29:29.836Z,16.42
2019-06-10T16:32:02.514Z,14.00
2019-06-10T16:34:34.604Z,9.75
2019-06-10T16:37:06.346Z,12.15
2019-06-10T16:39:38.154Z,11.30
2019-06-10T16:42:12.176Z,13.90
2019-06-10T16:44:43.600Z,12.70
2019-06-10T16:47:15.342Z,13.93
2019-06-10T16:49:47.065Z,12.47
2019-06-10T16:52:19.512Z,13.32
2019-06-10T16:54:52.638Z,16.67
2019-06-10T16:57:25.965Z,18.27
2019-06-10T16:59:58.149Z,15.32
2019-06-10T17:02:30.054Z,17.98
2019-06-10T17:05:04.017Z,11.53
2019-06-10T17:07:35.729Z,11.43
2019-06-10T17:10:08.853Z,15.93
2019-06-10T17:12:42.553Z,13.72
2019-06-10T17:15:14.691Z,9.63
2019-06-10T17:17:46.419Z,9.60
2019-06-10T17:20:18.577Z,16.85
2019-06-10T17:22:52.394Z,11.68
2019-06-10T17:25:25.418Z,14.33
2019-06-10T17:27:57.785Z,14.33
2019-06-10T17:30:30.021Z,14.40
2019-06-10T17:33:02.353Z,12.07
2019-06-10T17:35:36.862Z,12.18
2019-06-10T17:38:07.885Z,18.80
2019-06-10T17:40:39.800Z,13.05
2019-06-10T17:43:11.536Z,13.85
2019-06-10T17:45:43.457Z,14.68
2019-06-10T17:48:15.303Z,18.67
2019-06-10T17:50:47.109Z,13.53
2019-06-10T17:53:18.943Z,15.70
2019-06-10T17:55:50.637Z,18.07
2019-06-10T17:58:37.612Z,16.32
2019-06-10T18:00:56.081Z,16.62
2019-06-10T18:03:28.161Z,15.35
2019-06-10T18:06:02.769Z,15.40
2019-06-10T18:08:36.416Z,17.00
2019-06-10T18:11:08.328Z,12.70
2019-06-10T18:13:42.390Z,14.78
2019-06-10T18:16:13.893Z,10.70
2019-06-10T18:18:45.662Z,18.42
2019-06-10T18:21:17.504Z,15.10
2019-06-10T18:23:49.346Z,11.30
2019-06-10T18:26:23.057Z,16.97
2019-06-10T18:29:04.456Z,13.13
2019-06-10T18:31:29.487Z,12.25
2019-06-10T18:34:02.489Z,14.87
2019-06-10T18:36:35.867Z,15.95
2019-06-10T18:39:08.236Z,16.00
2019-06-10T18:41:41.840Z,16.65
2019-06-10T18:44:22.026Z,13.32
2019-06-10T18:46:47.568Z,14.93
2019-06-10T18:49:19.301Z,17.87
2019-06-10T18:51:53.200Z,14.58
2019-06-10T18:54:24.894Z,14.98
2019-06-10T18:56:56.816Z,15.98
2019-06-10T18:59:29.853Z,15.70
2019-06-10T19:02:06.087Z,13.55
2019-06-10T19:04:37.943Z,16.93
2019-06-10T19:07:09.915Z,20.08
2019-06-10T19:09:47.856Z,17.25
2019-06-10T19:12:15.472Z,19.15
2019-06-10T19:14:47.233Z,18.20
2019-06-10T19:17:19.079Z,16.10
2019-06-10T19:19:53.095Z,17.30
2019-06-10T19:22:24.653Z,15.50
2019-06-10T19:24:56.439Z,14.13
2019-06-10T19:27:28.166Z,16.57
2019-06-10T19:29:59.913Z,16.93
2019-06-10T19:32:34.995Z,18.17
2019-06-10T19:35:06.958Z,17.15
2019-06-10T19:37:40.510Z,18.73
2019-06-10T19:40:13.296Z,14.40
2019-06-10T19:42:45.118Z,15.80
2019-06-10T19:45:19.173Z,16.10
2019-06-10T19:47:52.263Z,14.70
2019-06-10T19:50:24.335Z,19.48
2019-06-10T19:52:56.206Z,18.73
2019-06-10T19:55:28.075Z,17.67
2019-06-10T19:57:59.934Z,19.57
2019-06-10T20:00:33.119Z,18.48
2019-06-10T20:03:05.476Z,19.07
2019-06-10T20:05:38.073Z,14.43
2019-06-10T20:08:12.143Z,16.93
2019-06-10T20:10:44.536Z,18.07
2019-06-10T20:13:16.517Z,17.32
2019-06-10T20:15:48.755Z,19.90
2019-06-10T20:18:22.668Z,17.92
2019-06-10T20:20:54.350Z,20.95
2019-06-10T20:23:26.254Z,19.45
2019-06-10T20:25:58.061Z,18.87
2019-06-10T20:28:31.994Z,14.07
2019-06-10T20:31:03.532Z,16.82
2019-06-10T20:33:38.562Z,15.10
2019-06-10T20:36:17.983Z,17.12
2019-06-10T20:38:48.182Z,14.95
2019-06-10T20:41:17.888Z,22.77
2019-06-10T20:43:55.114Z,15.78
2019-06-10T20:46:23.737Z,18.65
2019-06-10T20:48:55.648Z,17.02
2019-06-10T20:51:27.574Z,17.52
2019-06-10T20:53:59.302Z,20.82
2019-06-10T20:56:33.540Z,21.05
2019-06-10T20:59:04.658Z,27.02
2019-06-10T21:01:36.700Z,28.15
2019-06-10T21:04:08.813Z,25.57
2019-06-10T21:06:43.282Z,20.32
2019-06-10T21:09:16.162Z,22.70
2019-06-10T21:11:49.736Z,27.23
2019-06-10T21:14:22.932Z,25.77
2019-06-10T21:16:57.520Z,24.87
2019-06-10T21:19:29.234Z,27.80
2019-06-10T21:22:02.724Z,26.30
2019-06-10T21:24:34.680Z,30.80
2019-06-10T21:27:06.397Z,36.00
2019-06-10T21:29:38.102Z,29.53
2019-06-10T21:32:12.342Z,25.23
2019-06-10T21:34:44.819Z,33.17
2019-06-10T21:37:17.041Z,30.80
2019-06-10T21:39:49.589Z,34.30
2019-06-10T21:42:22.879Z,32.73
2019-06-10T21:44:54.768Z,31.60
2019-06-10T21:47:26.477Z,24.97
2019-06-10T21:49:58.284Z,30.27
2019-06-10T21:52:32.362Z,31.10
2019-06-10T21:55:03.754Z,34.63
2019-06-10T21:57:35.466Z,24.30
2019-06-10T22:00:14.042Z,39.53
2019-06-10T22:02:47.067Z,32.87
2019-06-10T22:05:19.146Z,31.77
2019-06-10T22:07:55.106Z,30.40
2019-06-10T22:10:24.605Z,35.90
2019-06-10T22:12:56.428Z,30.47
2019-06-10T22:15:28.117Z,30.43
2019-06-10T22:18:02.008Z,36.93
2019-06-10T22:20:33.443Z,38.87
2019-06-10T22:23:05.261Z,43.83
2019-06-10T22:25:36.972Z,41.10
2019-06-10T22:28:08.791Z,35.47
2019-06-10T22:30:43.097Z,37.47
2019-06-10T22:33:14.126Z,41.60
2019-06-10T22:35:45.940Z,41.97
2019-06-10T22:38:17.683Z,46.17
2019-06-10T22:40:49.491Z,50.12
2019-06-10T22:43:23.334Z,55.73
2019-06-10T22:45:55.948Z,51.87
2019-06-10T22:48:28.543Z,43.83
2019-06-10T22:51:00.341Z,53.20
2019-06-10T22:53:33.347Z,48.93
2019-06-10T22:56:05.265Z,44.97
2019-06-10T22:58:36.972Z,50.80
2019-06-10T23:01:08.665Z,50.50
2019-06-10T23:03:40.396Z,48.20
2019-06-10T23:06:12.613Z,62.33
2019-06-10T23:08:44.526Z,65.67
2019-06-10T23:11:16.226Z,51.40
2019-06-10T23:13:48.630Z,54.90
2019-06-10T23:16:22.280Z,54.90
2019-06-10T23:18:56.787Z,50.47
2019-06-10T23:21:27.796Z,59.10
2019-06-10T23:24:00.167Z,59.37
2019-06-10T23:26:33.380Z,71.37
2019-06-10T23:29:05.350Z,72.10
2019-06-10T23:31:49.695Z,63.10
2019-06-10T23:34:11.645Z,68.83
2019-06-10T23:36:44.510Z,60.70
2019-06-10T23:39:16.241Z,69.70
2019-06-10T23:41:47.943Z,63.10
2019-06-10T23:44:19.664Z,73.50
2019-06-10T23:46:51.373Z,65.97
2019-06-10T23:49:23.089Z,65.97
2019-06-10T23:51:56.011Z,69.93
2019-06-10T23:54:28.509Z,67.60
2019-06-10T23:57:01.448Z,64.07
2019-06-10T23:59:34.365Z,60.03
